createdAt,value
2019-02-04T00:04:00.664Z,0.30
2019-02-04T00:09:09.131Z,0.40
2019-02-04T00:14:15.265Z,0.30
2019-02-04T00:19:21.155Z,0.30
2019-02-04T00:24:27.097Z,0.30
2019-02-04T00:29:33.274Z,0.30
2019-02-04T00:34:39.266Z,0.20
2019-02-04T00:39:45.252Z,0.10
2019-02-04T00:44:51.316Z,0.00
2019-02-04T00:49:57.789Z,-0.20
2019-02-04T00:55:03.865Z,-0.20
2019-02-04T01:00:30.258Z,-0.10
2019-02-04T01:05:36.615Z,-0.20
2019-02-04T01:10:42.693Z,-0.10
2019-02-04T01:15:48.788Z,-0.10
2019-02-04T01:20:55.223Z,0.00
2019-02-04T01:26:01.126Z,0.00
2019-02-04T01:31:07.173Z,0.00
2019-02-04T01:36:13.371Z,0.00
2019-02-04T01:41:19.528Z,-0.10
2019-02-04T01:46:25.620Z,-0.10
2019-02-04T01:51:31.749Z,-0.20
2019-02-04T01:56:37.867Z,-0.30
2019-02-04T02:01:43.937Z,-0.10
2019-02-04T02:06:49.999Z,0.00
2019-02-04T02:11:56.242Z,-0.10
2019-02-04T02:17:02.690Z,-0.10
2019-02-04T02:22:08.753Z,-0.20
2019-02-04T02:27:15.226Z,-0.20
2019-02-04T02:32:21.307Z,-0.20
2019-02-04T02:37:27.289Z,-0.20
2019-02-04T02:42:33.183Z,-0.10
2019-02-04T02:47:39.155Z,0.00
2019-02-04T02:52:45.236Z,0.00
2019-02-04T02:57:51.365Z,0.00
2019-02-04T03:02:57.664Z,0.10
2019-02-04T03:08:03.708Z,0.10
2019-02-04T03:13:10.112Z,0.20
2019-02-04T03:18:16.278Z,0.20
2019-02-04T03:23:22.271Z,0.20
2019-02-04T03:28:28.342Z,0.20
2019-02-04T03:33:34.393Z,0.30
2019-02-04T03:38:40.466Z,0.30
2019-02-04T03:43:46.566Z,0.30
2019-02-04T03:48:52.688Z,0.30
2019-02-04T03:53:58.692Z,0.30
2019-02-04T03:59:05.283Z,0.20
2019-02-04T04:04:11.270Z,0.20
2019-02-04T04:09:17.254Z,0.20
2019-02-04T04:14:23.220Z,0.30
2019-02-04T04:19:29.743Z,0.40
2019-02-04T04:24:35.781Z,0.30
2019-02-04T04:29:41.856Z,0.30
2019-02-04T04:34:47.945Z,0.40
2019-02-04T04:39:54.012Z,0.40
2019-02-04T04:45:00.112Z,0.30
2019-02-04T04:50:08.373Z,0.30
2019-02-04T04:55:16.860Z,0.30
2019-02-04T05:00:25.881Z,0.30
2019-02-04T05:05:32.040Z,0.20
2019-02-04T05:10:38.116Z,0.20
2019-02-04T05:15:44.119Z,0.10
2019-02-04T05:20:50.090Z,0.10
2019-02-04T05:25:57.986Z,0.00
2019-02-04T05:31:04.112Z,0.00
2019-02-04T05:36:10.001Z,0.10
2019-02-04T05:46:45.216Z,0.00
2019-02-04T05:51:51.404Z,-0.10
2019-02-04T05:56:57.383Z,-0.20
2019-02-04T06:02:03.384Z,-0.20
2019-02-04T06:07:09.925Z,-0.10
2019-02-04T06:12:16.004Z,0.00
2019-02-04T06:17:22.101Z,0.10
2019-02-04T06:22:28.989Z,0.10
2019-02-04T06:27:35.089Z,0.00
2019-02-04T06:32:41.229Z,0.00
2019-02-04T06:37:47.406Z,-0.10
2019-02-04T06:42:53.441Z,-0.30
2019-02-04T06:47:59.545Z,-0.40
2019-02-04T06:53:05.526Z,-0.60
2019-02-04T06:58:11.552Z,-0.70
2019-02-04T07:03:17.992Z,-0.70
2019-02-04T07:08:23.956Z,-0.50
2019-02-04T07:13:29.953Z,-0.40
2019-02-04T07:18:36.908Z,-0.40
2019-02-04T07:23:43.030Z,-0.40
2019-02-04T07:28:49.153Z,-0.20
2019-02-04T07:33:55.465Z,-0.10
2019-02-04T07:39:01.539Z,-0.10
2019-02-04T07:44:08.331Z,-0.20
2019-02-04T07:49:14.625Z,-0.20
2019-02-04T07:54:20.766Z,-0.20
2019-02-04T07:59:27.098Z,0.30
2019-02-04T08:04:33.127Z,0.60
2019-02-04T08:09:39.196Z,0.70
2019-02-04T08:14:45.451Z,0.80
2019-02-04T08:19:51.600Z,1.10
2019-02-04T08:24:58.653Z,1.40
2019-02-04T08:30:06.158Z,1.50
2019-02-04T08:35:12.454Z,1.70
2019-02-04T08:40:18.641Z,1.80
2019-02-04T08:45:24.791Z,1.30
2019-02-04T08:50:30.998Z,1.00
2019-02-04T08:55:37.242Z,1.00
2019-02-04T09:00:43.556Z,1.00
2019-02-04T09:05:49.586Z,1.10
2019-02-04T09:10:55.992Z,1.20
2019-02-04T09:16:02.085Z,1.90
2019-02-04T09:21:08.062Z,5.10
2019-02-04T09:26:14.310Z,7.00
2019-02-04T09:31:20.300Z,8.40
2019-02-04T09:36:26.469Z,9.60
2019-02-04T09:41:32.621Z,8.40
2019-02-04T09:46:38.641Z,6.10
2019-02-04T09:51:44.768Z,4.50
2019-02-04T09:56:50.793Z,3.80
2019-02-04T10:01:57.035Z,3.50
2019-02-04T10:07:03.226Z,3.30
2019-02-04T10:12:09.193Z,3.30
2019-02-04T10:17:15.191Z,3.10
2019-02-04T10:22:21.191Z,2.70
2019-02-04T10:27:27.470Z,2.50
2019-02-04T10:32:33.552Z,2.40
2019-02-04T10:37:39.910Z,2.30
2019-02-04T10:42:46.415Z,1.90
2019-02-04T10:47:52.483Z,1.80
2019-02-04T10:52:58.428Z,1.70
2019-02-04T10:58:05.300Z,1.80
2019-02-04T11:03:11.318Z,1.90
2019-02-04T11:08:17.288Z,1.90
2019-02-04T11:13:23.233Z,2.00
2019-02-04T11:18:29.270Z,2.40
2019-02-04T11:23:36.186Z,2.70
2019-02-04T11:28:42.238Z,2.70
2019-02-04T11:33:48.232Z,2.60
2019-02-04T11:38:54.439Z,2.60
2019-02-04T11:44:00.365Z,2.40
2019-02-04T11:49:06.452Z,2.50
2019-02-04T11:54:12.537Z,2.30
2019-02-04T11:59:18.491Z,2.10
2019-02-04T12:04:24.673Z,2.10
2019-02-04T12:09:30.841Z,2.10
2019-02-04T12:14:36.937Z,2.40
2019-02-04T12:19:42.910Z,3.10
2019-02-04T12:24:49.204Z,3.70
2019-02-04T12:29:55.150Z,3.10
2019-02-04T12:35:01.212Z,2.70
2019-02-04T12:40:07.750Z,2.40
2019-02-04T12:45:17.658Z,2.40
2019-02-04T12:50:23.895Z,2.20
2019-02-04T12:55:30.626Z,2.00
2019-02-04T13:00:36.644Z,1.80
2019-02-04T13:05:45.287Z,1.60
2019-02-04T13:10:51.254Z,1.40
2019-02-04T13:15:57.102Z,1.40
2019-02-04T13:21:03.319Z,1.30
2019-02-04T13:26:10.185Z,1.20
2019-02-04T13:31:16.297Z,1.20
2019-02-04T13:36:22.522Z,1.20
2019-02-04T13:41:28.596Z,1.20
2019-02-04T13:46:34.678Z,1.10
2019-02-04T13:51:40.690Z,1.10
2019-02-04T13:56:46.624Z,1.10
2019-02-04T14:01:52.590Z,1.00
2019-02-04T14:06:58.882Z,0.90
2019-02-04T14:12:05.029Z,0.80
2019-02-04T14:17:11.731Z,0.90
2019-02-04T14:22:17.909Z,0.80
2019-02-04T14:27:24.087Z,0.70
2019-02-04T14:32:30.153Z,0.60
2019-02-04T14:37:36.957Z,0.50
2019-02-04T14:42:43.248Z,0.50
2019-02-04T14:48:12.045Z,0.40
2019-02-04T14:53:36.036Z,0.30
2019-02-04T14:59:24.838Z,0.40
2019-02-04T15:05:11.903Z,0.10
2019-02-04T15:10:30.515Z,0.00
2019-02-04T15:15:57.605Z,-0.20
2019-02-04T15:21:46.250Z,-0.20
2019-02-04T15:27:21.856Z,-0.40
2019-02-04T15:33:15.228Z,-0.50
2019-02-04T15:38:51.628Z,-0.60
2019-02-04T15:44:30.342Z,-0.70
2019-02-04T15:50:22.902Z,-1.00
2019-02-04T15:55:29.138Z,-1.00
2019-02-04T16:00:35.093Z,-1.10
2019-02-04T16:05:41.504Z,-1.10
2019-02-04T16:10:47.513Z,-1.20
2019-02-04T16:15:53.488Z,-1.20
2019-02-04T16:20:59.602Z,-1.20
2019-02-04T16:26:05.711Z,-1.30
2019-02-04T16:31:11.690Z,-1.40
2019-02-04T16:36:17.791Z,-1.40
2019-02-04T16:41:23.756Z,-1.40
2019-02-04T16:46:29.823Z,-1.30
2019-02-04T16:51:36.202Z,-1.20
2019-02-04T16:56:42.368Z,-1.20
2019-02-04T17:01:48.544Z,-1.30
2019-02-04T17:06:54.544Z,-1.30
2019-02-04T17:12:00.597Z,-1.40
2019-02-04T17:17:06.873Z,-1.50
2019-02-04T17:22:13.037Z,-1.80
2019-02-04T17:27:19.048Z,-2.00
2019-02-04T17:32:25.144Z,-2.20
2019-02-04T17:37:31.513Z,-2.30
2019-02-04T17:42:37.655Z,-2.50
2019-02-04T17:47:44.285Z,-2.60
2019-02-04T17:52:50.241Z,-2.70
2019-02-04T17:57:56.514Z,-2.80
2019-02-04T18:03:02.837Z,-2.80
2019-02-04T18:08:09.268Z,-3.00
2019-02-04T18:13:15.359Z,-2.80
2019-02-04T18:18:21.204Z,-3.10
2019-02-04T18:23:27.812Z,-3.20
2019-02-04T18:28:33.881Z,-3.20
2019-02-04T18:33:40.067Z,-3.30
2019-02-04T18:38:46.257Z,-3.40
2019-02-04T18:43:52.414Z,-3.50
2019-02-04T18:48:58.547Z,-3.40
2019-02-04T18:54:04.757Z,-3.50
2019-02-04T18:59:10.759Z,-3.60
2019-02-04T19:10:16.776Z,-3.60
2019-02-04T19:15:24.072Z,-3.70
2019-02-04T19:20:30.241Z,-3.80
2019-02-04T19:25:36.331Z,-3.80
2019-02-04T19:30:48.337Z,-3.90
2019-02-04T19:35:55.888Z,-3.90
2019-02-04T19:41:02.127Z,-3.90
2019-02-04T19:46:09.389Z,-3.90
2019-02-04T19:51:15.582Z,-3.90
2019-02-04T19:56:22.884Z,-3.90
2019-02-04T20:01:28.871Z,-4.00
2019-02-04T20:06:35.292Z,-4.10
2019-02-04T20:11:41.511Z,-4.20
2019-02-04T20:16:47.611Z,-4.20
2019-02-04T20:21:53.665Z,-4.30
2019-02-04T20:26:59.896Z,-4.30
2019-02-04T20:32:06.314Z,-4.30
2019-02-04T20:37:12.304Z,-4.30
2019-02-04T20:42:18.447Z,-4.40
2019-02-04T20:47:24.779Z,-4.40
2019-02-04T20:52:31.019Z,-4.40
2019-02-04T20:57:37.006Z,-4.50
2019-02-04T21:02:43.090Z,-4.50
2019-02-04T21:07:49.255Z,-4.60
2019-02-04T21:12:55.472Z,-4.50
2019-02-04T21:18:01.509Z,-4.60
2019-02-04T21:23:07.670Z,-4.50
2019-02-04T21:28:13.950Z,-4.60
2019-02-04T21:33:20.057Z,-4.70
2019-02-04T21:38:26.008Z,-4.70
2019-02-04T21:43:32.222Z,-4.60
2019-02-04T21:48:38.230Z,-4.70
2019-02-04T21:53:44.334Z,-4.70
2019-02-04T21:58:50.431Z,-4.70
2019-02-04T22:03:56.505Z,-4.70
2019-02-04T22:09:02.455Z,-4.70
2019-02-04T22:14:10.161Z,-4.80
2019-02-04T22:19:16.253Z,-4.90
2019-02-04T22:24:22.138Z,-4.90
2019-02-04T22:29:30.851Z,-4.80
2019-02-04T22:34:35.886Z,-4.80
2019-02-04T22:39:42.820Z,-4.80
2019-02-04T22:44:49.002Z,-4.80
2019-02-04T22:49:55.150Z,-4.80
2019-02-04T22:55:01.112Z,-4.70
2019-02-04T23:00:22.098Z,-4.70
2019-02-04T23:05:28.013Z,-4.70
2019-02-04T23:10:34.012Z,-4.70
2019-02-04T23:15:40.085Z,-4.60
2019-02-04T23:20:46.571Z,-4.50
2019-02-04T23:25:52.626Z,-4.40
2019-02-04T23:30:58.624Z,-4.40
2019-02-04T23:36:05.182Z,-4.30
2019-02-04T23:41:11.076Z,-4.20
2019-02-04T23:46:17.146Z,-4.10
2019-02-04T23:51:22.988Z,-4.00
2019-02-04T23:56:29.084Z,-3.90
